Airfield :
LOGIN :

Register | Disclaimer

   EN    FR    IT 

 










Legend :    VFR   Marginal VFR   IFR   Intensive IFR   Very Intensive IFR
Visi :
Ceiling :
>= 8 km
>= 3000ft
5 to 8 km
1000 to 3000 ft
1500m to 5 km
500 to 1000 ft
800 to 1500m
200 to 500 ft
< 800m
< 200 ft
Symbols :   Thunderstorms  Fog  Heavy snow  Heavy precipitations  Wind > 20 kt
SIGMETs :     Misc.  Thunderstorms  Icing  Turbulence  Mountain Waves  Volcanic Ashes






- Airport Elevation : 359 ft
- IATA code : BVA


LFOB - Beauvais

CURRENT METAR :
  • 150700Z AUTO 19006KT 9999 BKN014 BKN034 BKN210 13/12 Q1006 NOSIG

EXPIRED METARs :
  • 150630Z AUTO 17003KT 9999 FEW037 BKN220 12/11 Q1005 TEMPO BKN012
  • 150600Z AUTO 19003KT 170V230 9999 FEW012 SCT034 BKN220 13/11 Q1005 TEMPO BKN012
  • 150530Z AUTO 22006KT 190V250 9999 BKN011 BKN020 OVC034 13/12 Q1005 NOSIG
  • 150500Z AUTO VRB03KT 9999 BKN015 BKN024 BKN032 13/12 Q1006 TEMPO BKN008
  • 150430Z AUTO 19004KT 9999 FEW022 BKN032 BKN180 13/12 Q1006 TEMPO BKN008
  • 150400Z AUTO 20006KT CAVOK 13/12 Q1005 TEMPO BKN008

TAF TAF LFOB
Valid from the 15 at 06:00 until the 16 at 06:00 UTC


150500Z 1506/1606 20008KT 9999 BKN025
TEMPO 1506/1509 BKN012
PROB30
TEMPO 1515/1520 4000 SHRA BKN013TCU
BECMG 1523/1602 17013KT
TEMPO 1602/1606 17015G25KT 3000 RADZ BKN006 OVC013
ATIS : +33 3 44 11 49 28



MET'MAP, your aeronautical weather chart ! - Copyright ORBIFLY December 2007 - Disclaimer

ORBIFLY MET'MAP TEAM :

Programming & Development : Alexandra Zaïnal
Concept & Development : Baudouin d'Aumeries
Co-Development & Prog : Marc-Olivier Méhu
Technical & hardware support : Manuel Goepfert

Contact : metmap@orbifly.com




SOURCES & CREDITS :

   NOAA